Time;durP1;ratioP1;P1;durP2;ratioP2;P2;SDS_P1;SDS_P2;PMS_P1;PMS_P2;Temp;Humidity;BMP_temperature;BMP_pressure;BME280_temperature;BME280_humidity;BME280_pressure;Samples;Min_cycle;Max_cycle;Signal;HPM_P1;HPM_P2
2023/10/06 00:00:40;;;;;;;6.90;3.58;;;10.30;99.90;;;;;;4886808;29;20398;-63
2023/10/06 00:03:10;;;;;;;9.93;4.50;;;10.30;99.90;;;;;;4894899;29;20443;-64
2023/10/06 00:05:40;;;;;;;7.80;4.03;;;10.30;99.90;;;;;;4898331;29;20048;-62
2023/10/06 00:08:10;;;;;;;7.53;4.13;;;10.20;99.90;;;;;;4898780;29;20033;-64
2023/10/06 00:10:44;;;;;;;7.75;4.00;;;10.20;99.90;;;;;;4899030;29;20102;-64
2023/10/06 00:13:12;;;;;;;7.55;4.07;;;10.10;99.90;;;;;;4899141;29;20045;-64
2023/10/06 00:15:44;;;;;;;7.22;4.32;;;10.20;99.90;;;;;;4892252;29;20494;-63
2023/10/06 00:18:16;;;;;;;6.38;3.35;;;10.20;99.90;;;;;;4899161;29;20049;-64
2023/10/06 00:20:49;;;;;;;8.50;3.58;;;10.20;99.90;;;;;;4898250;29;20549;-64
2023/10/06 00:23:21;;;;;;;8.20;4.10;;;10.20;99.90;;;;;;4898556;29;20072;-64
2023/10/06 00:25:56;;;;;;;6.70;3.33;;;10.20;99.90;;;;;;4898926;29;20044;-64
2023/10/06 00:28:26;;;;;;;7.38;4.13;;;10.10;99.90;;;;;;4898858;29;20044;-64
2023/10/06 00:30:57;;;;;;;7.57;3.65;;;10.10;99.90;;;;;;4897581;29;20079;-64
2023/10/06 00:33:37;;;;;;;5.97;3.53;;;10.00;99.90;;;;;;4897464;29;20510;-64
2023/10/06 00:36:13;;;;;;;5.18;3.17;;;9.90;99.90;;;;;;4897473;29;20569;-64
2023/10/06 00:38:50;;;;;;;8.30;4.55;;;9.80;99.90;;;;;;4881085;29;20059;-64
2023/10/06 00:41:20;;;;;;;7.70;3.80;;;9.80;99.90;;;;;;4890741;29;20105;-64
2023/10/06 00:43:48;;;;;;;7.90;4.13;;;9.80;99.90;;;;;;4891419;29;20068;-64
2023/10/06 00:46:18;;;;;;;7.85;4.00;;;9.70;99.90;;;;;;4881545;29;20564;-64
2023/10/06 00:48:53;;;;;;;7.85;3.85;;;9.60;99.90;;;;;;4890882;29;20037;-64
2023/10/06 00:51:23;;;;;;;11.15;4.35;;;9.60;99.90;;;;;;4893736;29;20483;-64
2023/10/06 00:53:56;;;;;;;8.45;3.90;;;9.60;99.90;;;;;;4896383;29;20048;-64
2023/10/06 00:56:23;;;;;;;8.52;4.68;;;9.60;99.90;;;;;;4897706;29;20123;-64
2023/10/06 00:58:52;;;;;;;12.13;3.95;;;9.60;99.90;;;;;;4897665;29;20053;-64
2023/10/06 01:01:19;;;;;;;5.18;3.75;;;9.60;99.90;;;;;;4876878;29;20053;-64
2023/10/06 01:06:36;;;;;;;10.80;4.55;;;9.70;99.90;;;;;;4880424;29;20479;-64
2023/10/06 01:11:43;;;;;;;8.65;4.20;;;9.50;99.90;;;;;;4896760;29;20049;-64
2023/10/06 01:14:11;;;;;;;9.68;4.22;;;9.50;99.90;;;;;;4898247;29;20438;-63
2023/10/06 01:16:38;;;;;;;;;;;9.40;99.90;;;;;;4880772;29;20084;-64
2023/10/06 01:19:17;;;;;;;9.23;4.22;;;9.40;99.90;;;;;;4897264;29;19971;-64
2023/10/06 01:21:46;;;;;;;6.40;4.13;;;9.30;99.90;;;;;;4880155;29;20481;-64
2023/10/06 01:24:23;;;;;;;7.63;3.85;;;9.30;99.90;;;;;;4897993;29;20510;-64
2023/10/06 01:26:59;;;;;;;8.18;3.85;;;9.30;99.90;;;;;;4880480;29;20075;-64
2023/10/06 01:29:30;;;;;;;6.32;3.38;;;9.30;99.90;;;;;;4879436;29;20055;-64
2023/10/06 01:31:58;;;;;;;10.15;4.45;;;9.30;99.90;;;;;;4878249;29;20524;-64
2023/10/06 01:34:27;;;;;;;10.57;4.63;;;9.30;99.90;;;;;;4894469;29;20450;-64
2023/10/06 01:36:54;;;;;;;10.07;4.68;;;9.30;99.90;;;;;;4892662;29;20060;-64
2023/10/06 01:39:25;;;;;;;6.50;3.97;;;9.40;99.90;;;;;;4892848;29;20083;-64
2023/10/06 01:41:53;;;;;;;11.38;3.75;;;9.40;99.90;;;;;;4879649;29;20048;-64
2023/10/06 01:44:19;;;;;;;7.70;3.80;;;9.30;99.90;;;;;;4897767;29;20044;-64
2023/10/06 01:46:53;;;;;;;9.88;4.00;;;9.30;99.90;;;;;;4896128;29;20043;-64
2023/10/06 01:49:21;;;;;;;11.43;3.88;;;9.20;99.90;;;;;;4893580;29;20490;-63
2023/10/06 01:51:52;;;;;;;6.07;3.65;;;9.20;99.90;;;;;;4897081;29;20041;-64
2023/10/06 01:54:34;;;;;;;7.90;3.53;;;9.10;99.90;;;;;;4897544;29;20048;-64
2023/10/06 01:57:10;;;;;;;8.77;4.38;;;9.00;99.90;;;;;;4878705;29;20075;-63
2023/10/06 01:59:37;;;;;;;8.10;3.80;;;8.90;99.90;;;;;;4880088;29;20055;-64
2023/10/06 02:02:08;;;;;;;11.52;4.18;;;8.90;99.90;;;;;;4878944;29;20045;-64
2023/10/06 02:04:45;;;;;;;7.40;3.83;;;8.90;99.90;;;;;;4897391;29;20387;-63
2023/10/06 02:07:12;;;;;;;7.55;3.75;;;8.90;99.90;;;;;;4878484;29;20048;-64
2023/10/06 02:09:39;;;;;;;7.90;3.83;;;8.90;99.90;;;;;;4893219;29;20056;-64
2023/10/06 02:12:06;;;;;;;10.82;4.55;;;8.90;99.90;;;;;;4894694;29;20076;-64
2023/10/06 02:14:33;;;;;;;6.43;3.72;;;8.90;99.90;;;;;;4892376;29;20053;-64
2023/10/06 02:17:05;;;;;;;6.93;4.03;;;8.90;99.90;;;;;;4880239;29;20399;-64
2023/10/06 02:19:34;;;;;;;11.07;5.03;;;8.90;99.90;;;;;;4879503;29;20064;-63
2023/10/06 02:22:01;;;;;;;10.43;4.38;;;8.90;99.90;;;;;;4896760;29;20088;-64
2023/10/06 02:24:28;;;;;;;11.35;4.13;;;8.80;99.90;;;;;;4880070;29;20084;-64
2023/10/06 02:26:59;;;;;;;7.93;4.00;;;8.90;99.90;;;;;;4894698;29;20045;-63
2023/10/06 02:29:26;;;;;;;8.32;4.60;;;8.90;99.90;;;;;;4878719;29;20056;-64
2023/10/06 02:32:00;;;;;;;8.63;4.93;;;8.90;99.90;;;;;;4894912;29;20040;-64
2023/10/06 02:34:29;;;;;;;10.95;4.40;;;8.80;99.90;;;;;;4879047;29;20084;-64
2023/10/06 02:36:56;;;;;;;6.93;3.60;;;8.80;99.90;;;;;;4872314;29;20128;-64
2023/10/06 02:39:30;;;;;;;11.65;4.30;;;8.80;99.90;;;;;;4889411;29;20064;-64
2023/10/06 02:42:00;;;;;;;9.88;3.40;;;8.80;99.90;;;;;;4896843;29;20386;-64
2023/10/06 02:44:29;;;;;;;7.13;3.10;;;8.80;99.90;;;;;;4896719;29;20051;-64
2023/10/06 02:46:56;;;;;;;5.25;3.45;;;8.80;99.90;;;;;;4895504;29;20554;-63
2023/10/06 02:49:40;;;;;;;10.20;3.90;;;8.60;99.90;;;;;;4879434;29;20417;-64
2023/10/06 02:52:21;;;;;;;8.85;3.78;;;8.50;99.90;;;;;;4873502;29;20056;-64
2023/10/06 02:57:35;;;;;;;8.63;4.55;;;8.50;99.90;;;;;;4879552;29;20056;-64
2023/10/06 03:00:28;;;;;;;10.40;5.18;;;8.50;99.90;;;;;;4881636;29;20091;-64
2023/10/06 03:02:55;;;;;;;7.40;4.20;;;8.60;99.90;;;;;;4877173;29;20056;-64
2023/10/06 03:05:33;;;;;;;10.55;4.30;;;8.60;99.90;;;;;;4896699;29;20036;-63
2023/10/06 03:08:11;;;;;;;7.60;4.47;;;8.70;99.90;;;;;;4895778;29;20119;-63
2023/10/06 03:10:43;;;;;;;10.82;3.83;;;8.70;99.90;;;;;;4882730;29;20052;-64
2023/10/06 03:13:29;;;;;;;9.55;5.10;;;8.80;99.90;;;;;;4882542;29;20104;-63
2023/10/06 03:15:57;;;;;;;9.15;3.22;;;8.80;99.90;;;;;;4900241;29;20123;-64
2023/10/06 03:18:23;;;;;;;4.78;3.00;;;8.70;99.90;;;;;;4882759;29;20063;-64
2023/10/06 03:20:53;;;;;;;5.60;3.22;;;8.50;99.90;;;;;;4886051;29;20056;-64
2023/10/06 03:23:37;;;;;;;7.32;3.70;;;8.40;99.90;;;;;;4898612;29;20093;-64
2023/10/06 03:26:14;;;;;;;7.65;4.50;;;8.40;99.90;;;;;;4906500;29;20127;-63
2023/10/06 03:28:47;;;;;;;7.45;4.10;;;8.50;99.90;;;;;;4881110;29;20048;-64
2023/10/06 03:33:48;;;;;;;10.73;4.40;;;8.60;99.90;;;;;;4882399;29;20040;-64
2023/10/06 03:36:26;;;;;;;9.27;4.38;;;8.70;99.90;;;;;;4884468;29;20046;-64
2023/10/06 03:38:56;;;;;;;8.20;4.10;;;8.70;99.90;;;;;;4900556;29;20413;-64
2023/10/06 03:41:32;;;;;;;7.55;4.05;;;8.70;99.90;;;;;;4882959;29;20055;-64
2023/10/06 03:44:04;;;;;;;12.68;4.90;;;8.60;99.90;;;;;;4882869;29;20135;-64
2023/10/06 03:46:38;;;;;;;8.35;4.15;;;8.60;99.90;;;;;;4886630;29;20108;-64
2023/10/06 03:49:07;;;;;;;9.80;4.30;;;8.60;99.90;;;;;;4909388;29;20525;-64
2023/10/06 03:51:38;;;;;;;10.38;4.53;;;8.60;99.90;;;;;;4897987;29;20051;-64
2023/10/06 03:54:06;;;;;;;6.65;4.38;;;8.60;99.90;;;;;;4906468;29;20049;-64
2023/10/06 03:56:32;;;;;;;5.55;3.03;;;8.60;99.90;;;;;;4910893;29;20056;-64
2023/10/06 03:59:00;;;;;;;7.47;3.83;;;8.50;99.90;;;;;;4893824;29;20049;-63
2023/10/06 04:01:31;;;;;;;7.03;3.53;;;8.30;99.90;;;;;;4903554;29;20303;-64
2023/10/06 04:03:58;;;;;;;8.88;3.63;;;8.20;99.90;;;;;;4901879;29;20045;-63
2023/10/06 04:06:26;;;;;;;11.57;4.53;;;8.20;99.90;;;;;;4900108;29;20060;-63
2023/10/06 04:08:53;;;;;;;;;;;8.20;99.90;;;;;;4902043;29;20096;-64
2023/10/06 04:11:19;;;;;;;9.85;4.40;;;8.20;99.90;;;;;;4899863;29;19934;-64
2023/10/06 04:13:47;;;;;;;8.02;3.80;;;8.20;99.90;;;;;;4894800;29;20498;-64
2023/10/06 04:16:14;;;;;;;9.40;3.97;;;8.30;99.90;;;;;;4899055;29;20072;-63
2023/10/06 04:18:47;;;;;;;9.25;4.13;;;8.20;99.90;;;;;;4898554;29;20052;-64
2023/10/06 04:21:15;;;;;;;10.18;4.72;;;8.10;99.90;;;;;;4897707;29;20417;-64
2023/10/06 04:23:42;;;;;;;8.30;4.57;;;8.20;99.90;;;;;;4899685;29;20036;-63
2023/10/06 04:26:10;;;;;;;10.13;4.30;;;8.20;99.90;;;;;;4899828;29;20044;-63
2023/10/06 04:28:37;;;;;;;9.57;5.20;;;8.20;99.90;;;;;;4898542;29;20076;-64
2023/10/06 04:31:07;;;;;;;;;;;8.20;99.90;;;;;;4897729;29;20045;-63
2023/10/06 04:33:34;;;;;;;11.88;5.30;;;8.30;99.90;;;;;;4897992;29;20009;-64
2023/10/06 04:36:07;;;;;;;9.00;4.75;;;8.30;99.90;;;;;;4891783;29;20053;-64
2023/10/06 04:38:37;;;;;;;10.27;4.60;;;8.30;99.90;;;;;;4896632;29;20096;-64
2023/10/06 04:41:08;;;;;;;7.72;4.30;;;8.30;99.90;;;;;;4898376;29;20128;-64
2023/10/06 04:43:37;;;;;;;9.65;4.63;;;8.20;99.90;;;;;;4897365;29;20033;-64
2023/10/06 04:46:05;;;;;;;6.65;4.28;;;8.30;99.90;;;;;;4897718;29;20210;-64
2023/10/06 04:48:36;;;;;;;10.63;4.78;;;8.30;99.90;;;;;;4896697;29;20068;-64
2023/10/06 04:51:04;;;;;;;10.20;5.07;;;8.30;99.90;;;;;;4898377;29;20409;-63
2023/10/06 04:53:38;;;;;;;8.20;5.32;;;8.30;99.90;;;;;;4897190;29;20044;-64
2023/10/06 04:56:06;;;;;;;9.10;4.88;;;8.30;99.90;;;;;;4897898;29;20036;-64
2023/10/06 04:58:38;;;;;;;9.50;5.07;;;8.20;99.90;;;;;;4898203;29;20722;-64
2023/10/06 05:01:07;;;;;;;7.63;4.75;;;8.20;99.90;;;;;;4896898;29;20040;-64
2023/10/06 05:03:45;;;;;;;7.35;4.10;;;8.20;99.90;;;;;;4901215;29;20045;-64
2023/10/06 05:06:15;;;;;;;11.43;4.80;;;8.20;99.90;;;;;;4889207;29;20048;-64
2023/10/06 05:08:49;;;;;;;8.32;5.20;;;8.20;99.90;;;;;;4897912;29;20048;-64
2023/10/06 05:11:18;;;;;;;10.82;5.82;;;8.30;99.90;;;;;;4893942;29;20096;-64
2023/10/06 05:13:52;;;;;;;10.55;5.35;;;8.30;99.90;;;;;;4897881;29;20123;-64
2023/10/06 05:16:19;;;;;;;7.38;4.13;;;8.40;99.90;;;;;;4892346;29;20068;-64
2023/10/06 05:18:47;;;;;;;13.57;4.43;;;8.40;99.90;;;;;;4895273;29;20039;-63
2023/10/06 05:21:15;;;;;;;6.65;4.20;;;8.30;99.90;;;;;;4892963;29;20032;-63
2023/10/06 05:23:45;;;;;;;10.05;4.70;;;8.30;99.90;;;;;;4880203;29;20469;-64
2023/10/06 05:26:14;;;;;;;11.15;4.90;;;8.20;99.90;;;;;;4888833;29;20074;-63
2023/10/06 05:28:42;;;;;;;9.15;4.45;;;8.20;99.90;;;;;;4892052;29;20060;-63
2023/10/06 05:31:10;;;;;;;9.43;4.70;;;8.20;99.90;;;;;;4891606;29;20044;-62
2023/10/06 05:33:40;;;;;;;11.90;5.22;;;8.20;99.90;;;;;;4894416;29;20047;-64
2023/10/06 05:36:11;;;;;;;9.63;4.90;;;8.30;99.90;;;;;;4893629;29;20418;-64
2023/10/06 05:38:39;;;;;;;14.00;5.28;;;8.40;99.90;;;;;;4895564;29;20037;-63
2023/10/06 05:41:11;;;;;;;9.15;4.90;;;8.40;99.90;;;;;;4881512;29;20071;-64
2023/10/06 05:43:39;;;;;;;9.73;5.53;;;8.40;99.90;;;;;;4897615;29;20051;-64
2023/10/06 05:46:06;;;;;;;9.82;5.25;;;8.50;99.90;;;;;;4896239;29;20040;-64
2023/10/06 05:48:34;;;;;;;9.02;5.65;;;8.60;99.90;;;;;;4897295;29;20040;-64
2023/10/06 05:51:05;;;;;;;11.65;5.28;;;8.60;99.90;;;;;;4896452;29;20505;-64
2023/10/06 05:53:38;;;;;;;8.02;4.47;;;8.70;99.90;;;;;;4896874;29;20124;-64
2023/10/06 05:56:08;;;;;;;9.90;4.38;;;8.70;99.90;;;;;;4897305;29;20131;-64
2023/10/06 05:58:40;;;;;;;9.18;5.18;;;8.70;99.90;;;;;;4897388;29;20049;-64
2023/10/06 06:01:12;;;;;;;9.63;5.70;;;8.70;99.90;;;;;;4894183;29;20546;-64
2023/10/06 06:03:45;;;;;;;21.15;5.88;;;8.80;99.90;;;;;;4896626;29;20979;-63
2023/10/06 06:06:22;;;;;;;10.07;4.78;;;8.90;99.90;;;;;;4896553;29;20398;-64
2023/10/06 06:08:51;;;;;;;8.98;4.20;;;8.90;99.90;;;;;;4894780;29;20048;-64
2023/10/06 06:11:18;;;;;;;10.68;4.97;;;8.90;99.90;;;;;;4885902;29;20036;-64
2023/10/06 06:13:45;;;;;;;7.82;4.18;;;8.90;99.90;;;;;;4896726;29;20116;-64
2023/10/06 06:16:25;;;;;;;7.97;4.30;;;8.90;99.90;;;;;;4892890;29;20494;-64
2023/10/06 06:18:51;;;;;;;10.68;5.07;;;8.90;99.90;;;;;;4896335;29;20048;-64
2023/10/06 06:21:24;;;;;;;8.07;4.25;;;8.90;99.90;;;;;;4896886;29;20043;-64
2023/10/06 06:23:55;;;;;;;9.25;4.63;;;9.00;99.90;;;;;;4896142;29;20054;-64
2023/10/06 06:26:23;;;;;;;9.63;3.88;;;9.00;99.90;;;;;;4894748;29;20041;-64
2023/10/06 06:28:49;;;;;;;9.00;4.28;;;9.10;99.90;;;;;;4896513;29;20394;-64
2023/10/06 06:31:18;;;;;;;8.98;4.43;;;9.10;99.90;;;;;;4891433;29;20048;-64
2023/10/06 06:33:55;;;;;;;9.73;4.35;;;9.20;99.90;;;;;;4887950;29;20040;-63
2023/10/06 06:36:22;;;;;;;9.02;4.68;;;9.20;99.90;;;;;;4894708;29;20363;-64
2023/10/06 06:38:49;;;;;;;11.15;4.55;;;9.30;99.90;;;;;;4895627;29;20040;-64
2023/10/06 06:41:16;;;;;;;8.50;4.88;;;9.40;99.90;;;;;;4894873;29;20041;-64
2023/10/06 06:43:45;;;;;;;9.57;3.92;;;9.50;99.90;;;;;;4895301;29;20032;-63
2023/10/06 06:46:13;;;;;;;11.48;5.78;;;9.60;99.90;;;;;;4895945;29;20076;-63
2023/10/06 06:48:43;;;;;;;13.55;4.82;;;9.60;99.90;;;;;;4895635;29;20375;-64
2023/10/06 06:51:11;;;;;;;7.10;4.68;;;9.80;99.90;;;;;;4887414;29;20498;-64
2023/10/06 06:53:39;;;;;;;12.15;5.15;;;9.90;99.90;;;;;;4895545;29;20067;-64
2023/10/06 06:56:10;;;;;;;8.00;4.90;;;9.90;99.90;;;;;;4894112;29;20100;-64
2023/10/06 06:58:37;;;;;;;9.40;5.60;;;9.90;99.90;;;;;;4894327;29;20055;-64
2023/10/06 07:01:07;;;;;;;10.98;5.50;;;9.90;99.90;;;;;;4895673;29;20059;-64
2023/10/06 07:03:34;;;;;;;11.20;5.13;;;10.00;99.90;;;;;;4895680;29;20048;-64
2023/10/06 07:06:01;;;;;;;9.45;6.07;;;10.10;99.90;;;;;;4895928;29;20040;-64
2023/10/06 07:08:27;;;;;;;8.88;4.93;;;10.30;99.90;;;;;;4877786;29;20063;-64
2023/10/06 07:10:54;;;;;;;11.13;5.40;;;10.30;99.90;;;;;;4895713;29;20124;-64
2023/10/06 07:13:22;;;;;;;11.48;5.65;;;10.40;99.90;;;;;;4883356;29;20407;-64
2023/10/06 07:15:49;;;;;;;10.60;5.07;;;10.60;99.90;;;;;;4890345;29;20040;-64
2023/10/06 07:18:19;;;;;;;12.75;5.38;;;10.60;99.90;;;;;;4897601;29;20095;-64
2023/10/06 07:20:47;;;;;;;11.23;5.30;;;10.70;99.90;;;;;;4890810;29;20063;-64
2023/10/06 07:23:14;;;;;;;7.75;4.90;;;10.70;99.90;;;;;;4895519;29;20059;-64
2023/10/06 07:25:41;;;;;;;8.02;5.32;;;10.80;99.90;;;;;;4895785;29;20074;-64
2023/10/06 07:28:10;;;;;;;11.35;5.45;;;10.90;99.90;;;;;;4895312;29;20037;-64
2023/10/06 07:30:37;;;;;;;10.30;5.57;;;11.00;99.90;;;;;;4892545;29;20446;-64
2023/10/06 07:33:05;;;;;;;11.93;5.55;;;11.10;99.90;;;;;;4893315;29;20040;-64
2023/10/06 07:35:47;;;;;;;8.30;5.13;;;11.10;99.90;;;;;;4895497;29;20052;-64
2023/10/06 07:38:14;;;;;;;13.05;6.00;;;11.20;99.90;;;;;;4895258;29;20076;-64
2023/10/06 07:40:44;;;;;;;8.93;5.43;;;11.30;99.90;;;;;;4895469;29;20502;-64
2023/10/06 07:43:12;;;;;;;11.40;5.78;;;11.40;99.90;;;;;;4896117;29;20049;-64
2023/10/06 07:45:41;;;;;;;8.85;5.18;;;11.50;99.90;;;;;;4897345;29;20359;-64
2023/10/06 07:48:09;;;;;;;10.15;4.97;;;11.60;99.90;;;;;;4892954;29;20044;-63
2023/10/06 07:50:37;;;;;;;8.95;5.43;;;11.70;99.90;;;;;;4898838;29;20047;-64
2023/10/06 07:53:04;;;;;;;12.73;5.43;;;11.90;99.90;;;;;;4897670;29;20447;-64
2023/10/06 07:55:31;;;;;;;13.77;5.45;;;12.00;99.90;;;;;;4898807;29;20044;-64
2023/10/06 07:58:00;;;;;;;;;;;12.00;99.90;;;;;;4898423;29;20040;-64
2023/10/06 08:00:30;;;;;;;9.23;5.28;;;12.10;99.90;;;;;;4897554;29;20305;-64
2023/10/06 08:02:59;;;;;;;9.52;5.28;;;12.20;99.90;;;;;;4899009;29;20505;-64
2023/10/06 08:05:28;;;;;;;10.52;5.10;;;12.30;99.90;;;;;;4898416;29;20049;-64
2023/10/06 08:08:00;;;;;;;11.95;5.10;;;12.40;99.90;;;;;;4898783;29;20049;-64
2023/10/06 08:10:30;;;;;;;11.70;5.18;;;12.50;99.90;;;;;;4897436;29;20498;-64
2023/10/06 08:13:00;;;;;;;8.63;5.68;;;12.60;99.90;;;;;;4898883;29;20045;-63
2023/10/06 08:15:28;;;;;;;14.70;5.30;;;12.70;99.90;;;;;;4890728;29;20044;-64
2023/10/06 08:17:55;;;;;;;9.73;4.50;;;12.70;99.90;;;;;;4899076;29;20044;-64
2023/10/06 08:20:24;;;;;;;10.52;5.40;;;12.70;99.90;;;;;;4897739;29;20396;-63
2023/10/06 08:22:53;;;;;;;9.77;5.30;;;12.90;99.90;;;;;;4898625;29;20135;-64
2023/10/06 08:25:21;;;;;;;11.43;4.82;;;13.10;99.90;;;;;;4896558;29;20051;-64
2023/10/06 08:27:50;;;;;;;8.80;4.93;;;13.20;99.90;;;;;;4894505;29;20542;-64
2023/10/06 08:30:21;;;;;;;7.57;5.30;;;13.30;99.90;;;;;;4897428;29;20044;-62
2023/10/06 08:32:54;;;;;;;9.10;5.20;;;13.40;99.90;;;;;;4898428;29;20128;-64
2023/10/06 08:35:21;;;;;;;9.45;5.47;;;13.50;99.90;;;;;;4897703;29;20053;-64
2023/10/06 08:37:51;;;;;;;13.85;7.25;;;13.70;99.90;;;;;;4898232;29;20059;-64
2023/10/06 08:40:22;;;;;;;9.70;5.90;;;13.80;99.90;;;;;;4898004;29;20048;-65
2023/10/06 08:42:52;;;;;;;11.82;5.50;;;13.80;99.90;;;;;;4896609;29;20124;-64
2023/10/06 08:45:20;;;;;;;9.88;5.60;;;14.00;99.90;;;;;;4898063;29;20041;-65
2023/10/06 08:48:01;;;;;;;11.02;5.32;;;14.20;99.90;;;;;;4897889;29;20403;-62
2023/10/06 08:50:34;;;;;;;14.48;6.00;;;14.30;99.90;;;;;;4897476;29;20055;-65
2023/10/06 08:53:05;;;;;;;10.45;5.43;;;14.50;99.90;;;;;;4898139;29;20546;-64
2023/10/06 08:55:32;;;;;;;11.05;5.00;;;14.50;99.90;;;;;;4896940;29;20839;-64
2023/10/06 08:57:59;;;;;;;10.77;4.93;;;14.70;99.90;;;;;;4897170;29;20049;-64
2023/10/06 09:00:34;;;;;;;12.30;5.47;;;14.60;99.90;;;;;;4897299;29;20076;-64
2023/10/06 09:03:07;;;;;;;8.05;5.03;;;14.80;99.90;;;;;;4898019;29;20048;-64
2023/10/06 09:05:39;;;;;;;9.23;4.68;;;15.00;99.90;;;;;;4889805;29;20514;-64
2023/10/06 09:08:07;;;;;;;9.77;4.85;;;15.20;99.90;;;;;;4897673;29;20124;-62
2023/10/06 09:10:43;;;;;;;14.00;5.15;;;15.30;99.90;;;;;;4889626;29;20048;-64
2023/10/06 09:13:11;;;;;;;7.07;4.72;;;15.30;99.90;;;;;;4896373;29;20491;-62
2023/10/06 09:15:40;;;;;;;11.70;5.20;;;15.40;99.90;;;;;;4880886;29;20072;-64
2023/10/06 09:18:20;;;;;;;8.70;5.00;;;15.50;99.90;;;;;;4897286;29;20072;-64
2023/10/06 09:20:48;;;;;;;8.65;5.07;;;15.50;99.90;;;;;;4897298;29;20048;-62
2023/10/06 09:23:36;;;;;;;10.75;5.25;;;15.70;99.90;;;;;;4896314;29;20084;-63
2023/10/06 09:26:06;;;;;;;9.23;4.80;;;15.70;99.90;;;;;;4897369;29;20101;-64
2023/10/06 09:28:46;;;;;;;13.88;5.07;;;15.90;99.90;;;;;;4897211;29;20047;-64
2023/10/06 09:31:13;;;;;;;8.60;5.13;;;16.10;99.90;;;;;;4896528;29;20506;-63
2023/10/06 09:33:40;;;;;;;11.25;5.75;;;16.30;99.90;;;;;;4897495;29;20053;-64
2023/10/06 09:36:16;;;;;;;10.23;5.13;;;16.30;99.90;;;;;;4897272;29;20046;-63
2023/10/06 09:38:47;;;;;;;13.85;4.97;;;16.40;99.90;;;;;;4892509;29;20053;-64
2023/10/06 09:41:28;;;;;;;9.02;5.13;;;16.50;99.90;;;;;;4896822;29;20059;-63
2023/10/06 09:44:02;;;;;;;12.80;5.30;;;16.70;99.90;;;;;;4896872;29;20045;-64
2023/10/06 09:46:34;;;;;;;9.65;5.05;;;16.80;99.90;;;;;;4889951;29;20052;-63
2023/10/06 09:49:05;;;;;;;10.95;5.10;;;17.00;99.90;;;;;;4896546;29;20067;-64
2023/10/06 09:51:33;;;;;;;9.90;5.22;;;17.10;99.90;;;;;;4896620;29;20048;-64
2023/10/06 09:54:00;;;;;;;9.48;4.38;;;17.20;99.90;;;;;;4896874;29;20052;-63
2023/10/06 09:56:27;;;;;;;11.65;4.60;;;17.30;99.90;;;;;;4888150;29;20580;-64
2023/10/06 09:58:55;;;;;;;13.95;5.03;;;17.30;99.90;;;;;;4896913;29;20052;-64
2023/10/06 10:01:25;;;;;;;14.43;5.47;;;17.40;99.90;;;;;;4896176;29;20095;-64
2023/10/06 10:03:56;;;;;;;8.30;4.53;;;17.60;99.90;;;;;;4896792;29;20072;-63
2023/10/06 10:06:23;;;;;;;8.30;3.78;;;17.70;99.90;;;;;;4896124;29;20056;-62
2023/10/06 10:08:54;;;;;;;10.63;4.10;;;17.70;99.90;;;;;;4896695;29;20047;-63
2023/10/06 10:11:31;;;;;;;9.52;4.75;;;17.80;99.90;;;;;;4895254;29;20557;-64
2023/10/06 10:14:02;;;;;;;7.82;3.92;;;17.70;99.90;;;;;;4896671;29;20040;-63
2023/10/06 10:16:33;;;;;;;6.82;3.75;;;17.70;99.90;;;;;;4896125;29;20052;-64
2023/10/06 10:19:13;;;;;;;7.97;4.00;;;17.70;99.90;;;;;;4896585;29;20040;-64
2023/10/06 10:21:41;;;;;;;9.80;4.10;;;17.60;99.90;;;;;;4895951;29;20521;-63
2023/10/06 10:24:15;;;;;;;9.00;4.43;;;17.60;99.90;;;;;;4896523;29;20048;-64
2023/10/06 10:26:47;;;;;;;12.73;4.38;;;17.60;99.90;;;;;;4895180;29;20048;-64
2023/10/06 10:29:17;;;;;;;6.70;3.83;;;17.70;99.90;;;;;;4896228;29;20440;-64
2023/10/06 10:31:51;;;;;;;10.55;4.00;;;17.70;99.90;;;;;;4895937;29;20045;-64
2023/10/06 10:34:33;;;;;;;9.15;4.18;;;17.90;99.90;;;;;;4895237;29;20470;-64
2023/10/06 10:37:05;;;;;;;8.82;4.30;;;18.00;99.90;;;;;;4896357;29;20036;-64
2023/10/06 10:39:51;;;;;;;8.35;4.10;;;17.90;99.90;;;;;;4895648;29;20076;-63
2023/10/06 10:42:22;;;;;;;7.13;4.18;;;17.80;99.90;;;;;;4896211;29;20044;-63
2023/10/06 10:44:49;;;;;;;5.97;3.42;;;17.80;99.90;;;;;;4894662;29;20048;-62
2023/10/06 10:47:16;;;;;;;7.10;4.18;;;17.80;99.90;;;;;;4896040;29;20049;-65
2023/10/06 10:49:46;;;;;;;11.57;3.90;;;17.80;99.90;;;;;;4895615;29;20369;-63
2023/10/06 10:52:14;;;;;;;7.72;3.75;;;17.80;99.90;;;;;;4896139;29;20137;-64
2023/10/06 10:54:43;;;;;;;7.85;3.65;;;17.90;99.90;;;;;;4894918;29;20465;-62
2023/10/06 10:57:13;;;;;;;8.40;4.15;;;18.00;99.90;;;;;;4890584;29;20055;-63
2023/10/06 11:00:00;;;;;;;11.90;3.72;;;18.20;99.90;;;;;;4895703;29;20391;-63
2023/10/06 11:02:52;;;;;;;5.25;3.78;;;18.30;99.90;;;;;;4896386;29;20044;-63
2023/10/06 11:05:20;;;;;;;6.35;3.90;;;18.40;99.90;;;;;;4895944;29;20052;-63
2023/10/06 11:08:13;;;;;;;7.20;4.03;;;18.50;99.90;;;;;;4896278;29;20124;-64
2023/10/06 11:10:41;;;;;;;9.32;3.58;;;18.50;99.90;;;;;;4891187;29;20140;-64
2023/10/06 11:13:12;;;;;;;7.80;3.92;;;18.60;99.90;;;;;;4903322;29;20053;-64
2023/10/06 11:15:40;;;;;;;7.35;3.55;;;18.70;99.90;;;;;;4888232;29;20175;-64
2023/10/06 11:18:09;;;;;;;7.68;3.78;;;18.50;99.90;;;;;;4886368;29;20056;-64
2023/10/06 11:20:38;;;;;;;5.72;3.60;;;18.50;99.90;;;;;;4894826;29;20052;-64
2023/10/06 11:23:06;;;;;;;6.93;3.88;;;18.50;99.90;;;;;;4891266;29;20142;-63
2023/10/06 11:25:38;;;;;;;9.52;4.47;;;18.50;99.90;;;;;;4902691;29;20064;-64
2023/10/06 11:28:09;;;;;;;8.05;4.32;;;18.60;99.90;;;;;;4902394;29;20055;-63
2023/10/06 11:30:38;;;;;;;7.30;4.03;;;18.60;99.90;;;;;;4904283;29;20065;-63
2023/10/06 11:33:08;;;;;;;12.00;3.97;;;18.70;99.90;;;;;;4906863;29;20047;-64
2023/10/06 11:35:37;;;;;;;6.57;4.18;;;18.70;99.90;;;;;;4910649;29;20066;-64
2023/10/06 11:38:12;;;;;;;6.63;3.83;;;18.80;99.90;;;;;;4909431;29;20044;-63
2023/10/06 11:40:40;;;;;;;11.30;3.78;;;18.90;99.90;;;;;;4908767;29;20036;-64
2023/10/06 11:43:13;;;;;;;10.00;3.58;;;19.10;99.90;;;;;;4909664;29;20041;-64
2023/10/06 11:45:43;;;;;;;6.80;3.58;;;19.20;99.90;;;;;;4910308;29;20040;-64
2023/10/06 11:48:31;;;;;;;8.18;3.67;;;19.30;99.90;;;;;;4907347;29;20048;-64
2023/10/06 11:51:12;;;;;;;7.70;3.58;;;19.40;99.90;;;;;;4910075;29;20048;-64
2023/10/06 11:53:40;;;;;;;7.68;3.85;;;19.30;99.90;;;;;;4905518;29;20135;-64
2023/10/06 11:56:16;;;;;;;8.27;3.90;;;19.40;99.90;;;;;;4906802;29;20040;-63
2023/10/06 11:58:44;;;;;;;8.40;3.28;;;19.40;99.90;;;;;;4904776;29;20139;-61
2023/10/06 12:01:31;;;;;;;5.22;3.15;;;19.40;99.90;;;;;;4904622;29;20482;-62
2023/10/06 12:04:00;;;;;;;8.02;3.80;;;19.40;99.90;;;;;;4903987;29;20056;-62
2023/10/06 12:06:42;;;;;;;7.47;3.90;;;19.40;99.90;;;;;;4904675;29;20045;-62
2023/10/06 12:09:21;;;;;;;5.78;3.70;;;19.50;99.90;;;;;;4904454;29;20120;-61
2023/10/06 12:11:48;;;;;;;7.55;4.03;;;19.50;99.90;;;;;;4892164;29;20558;-64
2023/10/06 12:14:15;;;;;;;6.50;3.53;;;19.50;99.90;;;;;;4894053;29;20056;-64
2023/10/06 12:16:44;;;;;;;9.68;4.03;;;19.50;99.90;;;;;;4898689;29;20053;-64
2023/10/06 12:19:12;;;;;;;8.55;4.13;;;19.70;99.90;;;;;;4893950;29;20048;-62
2023/10/06 12:21:38;;;;;;;9.10;3.60;;;19.80;99.90;;;;;;4882108;29;20047;-62
2023/10/06 12:24:07;;;;;;;8.38;4.63;;;19.70;99.90;;;;;;4898649;29;20045;-62
2023/10/06 12:26:35;;;;;;;7.13;4.53;;;19.70;99.90;;;;;;4898664;29;20047;-63
2023/10/06 12:29:02;;;;;;;7.75;4.28;;;19.60;99.90;;;;;;4898240;29;20108;-64
2023/10/06 12:31:29;;;;;;;8.38;4.18;;;19.60;99.90;;;;;;4897901;29;20132;-64
2023/10/06 12:33:56;;;;;;;16.50;5.70;;;19.60;99.90;;;;;;4898389;29;20059;-64
2023/10/06 12:36:24;;;;;;;9.90;4.30;;;19.60;99.90;;;;;;4898063;29;20147;-62
2023/10/06 12:38:51;;;;;;;7.47;3.88;;;19.60;99.90;;;;;;4898459;29;20405;-63
2023/10/06 12:41:17;;;;;;;10.30;4.07;;;19.50;99.90;;;;;;4898268;29;20437;-64
2023/10/06 12:43:47;;;;;;;;;;;19.60;99.90;;;;;;4898813;29;20052;-64
2023/10/06 12:46:14;;;;;;;10.48;4.13;;;19.60;99.90;;;;;;4896632;29;19927;-64
2023/10/06 12:48:41;;;;;;;8.60;4.28;;;19.70;99.90;;;;;;4898162;29;20067;-64
2023/10/06 12:51:12;;;;;;;7.63;4.13;;;19.70;99.90;;;;;;4898284;29;20472;-64
2023/10/06 12:53:40;;;;;;;9.25;4.45;;;19.80;99.90;;;;;;4896082;29;20052;-63
2023/10/06 12:56:07;;;;;;;8.57;4.25;;;19.80;99.90;;;;;;4898148;29;20051;-62
2023/10/06 12:58:34;;;;;;;;;;;19.80;99.90;;;;;;4898435;29;20502;-62
2023/10/06 13:01:01;;;;;;;9.98;4.30;;;19.80;99.90;;;;;;4898112;29;19930;-64
2023/10/06 13:03:27;;;;;;;9.18;4.13;;;19.80;99.90;;;;;;4897682;29;20052;-64
2023/10/06 13:05:55;;;;;;;;;;;19.70;99.90;;;;;;4898470;29;20044;-64
2023/10/06 13:08:24;;;;;;;8.10;4.13;;;19.70;99.90;;;;;;4897820;29;19927;-64
2023/10/06 13:10:53;;;;;;;12.32;4.60;;;19.70;99.90;;;;;;4891814;29;20048;-62
2023/10/06 13:13:20;;;;;;;13.00;4.93;;;19.80;99.90;;;;;;4897850;29;20104;-64
2023/10/06 13:15:47;;;;;;;11.52;5.05;;;19.90;99.90;;;;;;4897769;29;20067;-64
2023/10/06 13:18:17;;;;;;;10.15;3.80;;;19.80;99.90;;;;;;4897479;29;20502;-64